sensor_id;sensor_type;location;lat;lon;timestamp;temperature;humidity
5009;DHT22;2523;51.058;6.922;2024-03-17T00:01:01;7.20;1.00
5009;DHT22;2523;51.058;6.922;2024-03-17T00:03:27;7.20;99.90
5009;DHT22;2523;51.058;6.922;2024-03-17T00:06:00;7.20;99.90
5009;DHT22;2523;51.058;6.922;2024-03-17T00:08:26;7.20;1.00
5009;DHT22;2523;51.058;6.922;2024-03-17T00:10:53;7.20;99.90
5009;DHT22;2523;51.058;6.922;2024-03-17T00:13:20;7.20;99.90
5009;DHT22;2523;51.058;6.922;2024-03-17T00:15:47;7.20;1.00
5009;DHT22;2523;51.058;6.922;2024-03-17T00:18:12;7.10;1.00
5009;DHT22;2523;51.058;6.922;2024-03-17T00:20:38;7.10;99.90
5009;DHT22;2523;51.058;6.922;2024-03-17T00:23:04;7.10;99.90
5009;DHT22;2523;51.058;6.922;2024-03-17T00:25:34;7.10;99.90
5009;DHT22;2523;51.058;6.922;2024-03-17T00:28:00;7.10;1.00
5009;DHT22;2523;51.058;6.922;2024-03-17T00:30:26;7.00;99.90
5009;DHT22;2523;51.058;6.922;2024-03-17T00:32:52;7.00;99.90
5009;DHT22;2523;51.058;6.922;2024-03-17T00:35:17;7.00;99.90
5009;DHT22;2523;51.058;6.922;2024-03-17T00:37:49;7.00;1.00
5009;DHT22;2523;51.058;6.922;2024-03-17T00:40:16;7.00;1.00
5009;DHT22;2523;51.058;6.922;2024-03-17T00:42:43;7.00;99.90
5009;DHT22;2523;51.058;6.922;2024-03-17T00:45:10;7.00;99.90
5009;DHT22;2523;51.058;6.922;2024-03-17T00:47:37;7.00;99.90
5009;DHT22;2523;51.058;6.922;2024-03-17T00:50:03;6.90;1.00
5009;DHT22;2523;51.058;6.922;2024-03-17T00:52:33;6.90;99.90
5009;DHT22;2523;51.058;6.922;2024-03-17T00:54:59;6.90;1.00
5009;DHT22;2523;51.058;6.922;2024-03-17T00:57:24;7.00;1.00
5009;DHT22;2523;51.058;6.922;2024-03-17T00:59:50;7.00;1.00
5009;DHT22;2523;51.058;6.922;2024-03-17T01:02:17;6.90;99.90
5009;DHT22;2523;51.058;6.922;2024-03-17T01:04:43;6.90;99.90
5009;DHT22;2523;51.058;6.922;2024-03-17T01:07:12;6.90;99.90
5009;DHT22;2523;51.058;6.922;2024-03-17T01:09:38;6.90;1.00
5009;DHT22;2523;51.058;6.922;2024-03-17T01:12:04;7.00;99.90
5009;DHT22;2523;51.058;6.922;2024-03-17T01:14:31;6.90;1.00
5009;DHT22;2523;51.058;6.922;2024-03-17T01:16:57;6.90;1.00
5009;DHT22;2523;51.058;6.922;2024-03-17T01:19:23;6.90;99.90
5009;DHT22;2523;51.058;6.922;2024-03-17T01:21:49;6.90;99.90
5009;DHT22;2523;51.058;6.922;2024-03-17T01:24:16;6.80;1.00
5009;DHT22;2523;51.058;6.922;2024-03-17T01:26:42;6.80;1.00
5009;DHT22;2523;51.058;6.922;2024-03-17T01:29:07;6.80;1.00
5009;DHT22;2523;51.058;6.922;2024-03-17T01:31:34;6.90;1.00
5009;DHT22;2523;51.058;6.922;2024-03-17T01:34:00;6.90;1.00
5009;DHT22;2523;51.058;6.922;2024-03-17T01:36:25;6.90;99.90
5009;DHT22;2523;51.058;6.922;2024-03-17T01:38:51;6.90;54.50
5009;DHT22;2523;51.058;6.922;2024-03-17T01:41:16;6.90;1.00
5009;DHT22;2523;51.058;6.922;2024-03-17T01:43:42;6.90;1.00
5009;DHT22;2523;51.058;6.922;2024-03-17T01:46:13;6.90;1.00
5009;DHT22;2523;51.058;6.922;2024-03-17T01:48:39;6.80;1.00
5009;DHT22;2523;51.058;6.922;2024-03-17T01:51:05;6.80;99.90
5009;DHT22;2523;51.058;6.922;2024-03-17T01:53:32;6.80;1.00
5009;DHT22;2523;51.058;6.922;2024-03-17T01:55:59;6.80;1.00
5009;DHT22;2523;51.058;6.922;2024-03-17T01:58:30;6.70;99.90
5009;DHT22;2523;51.058;6.922;2024-03-17T02:00:56;6.70;1.00
5009;DHT22;2523;51.058;6.922;2024-03-17T02:03:22;6.70;1.00
5009;DHT22;2523;51.058;6.922;2024-03-17T02:05:48;6.70;1.00
5009;DHT22;2523;51.058;6.922;2024-03-17T02:08:14;6.70;86.80
5009;DHT22;2523;51.058;6.922;2024-03-17T02:10:39;6.70;1.00
5009;DHT22;2523;51.058;6.922;2024-03-17T02:13:05;6.60;1.00
5009;DHT22;2523;51.058;6.922;2024-03-17T02:15:32;6.60;1.00
5009;DHT22;2523;51.058;6.922;2024-03-17T02:17:58;6.60;1.00
5009;DHT22;2523;51.058;6.922;2024-03-17T02:20:24;6.60;1.00
5009;DHT22;2523;51.058;6.922;2024-03-17T02:23:09;6.60;47.60
5009;DHT22;2523;51.058;6.922;2024-03-17T02:25:34;6.60;99.90
5009;DHT22;2523;51.058;6.922;2024-03-17T02:28:01;6.60;1.00
5009;DHT22;2523;51.058;6.922;2024-03-17T02:30:26;6.60;95.70
5009;DHT22;2523;51.058;6.922;2024-03-17T02:32:53;6.60;95.70
5009;DHT22;2523;51.058;6.922;2024-03-17T02:35:18;6.50;99.60
5009;DHT22;2523;51.058;6.922;2024-03-17T02:37:44;6.40;85.50
5009;DHT22;2523;51.058;6.922;2024-03-17T02:40:10;6.40;1.00
5009;DHT22;2523;51.058;6.922;2024-03-17T02:42:36;6.40;1.00
5009;DHT22;2523;51.058;6.922;2024-03-17T02:45:04;6.40;99.90
5009;DHT22;2523;51.058;6.922;2024-03-17T02:47:29;6.30;59.50
5009;DHT22;2523;51.058;6.922;2024-03-17T02:49:55;6.40;1.00
5009;DHT22;2523;51.058;6.922;2024-03-17T02:52:21;6.30;99.90
5009;DHT22;2523;51.058;6.922;2024-03-17T02:54:46;6.30;1.00
5009;DHT22;2523;51.058;6.922;2024-03-17T02:57:12;6.20;1.00
5009;DHT22;2523;51.058;6.922;2024-03-17T02:59:37;6.10;1.00
5009;DHT22;2523;51.058;6.922;2024-03-17T03:02:03;6.10;1.00
5009;DHT22;2523;51.058;6.922;2024-03-17T03:04:29;6.10;1.00
5009;DHT22;2523;51.058;6.922;2024-03-17T03:06:55;6.10;99.90
5009;DHT22;2523;51.058;6.922;2024-03-17T03:09:21;6.10;1.00
5009;DHT22;2523;51.058;6.922;2024-03-17T03:11:56;6.10;99.90
5009;DHT22;2523;51.058;6.922;2024-03-17T03:14:21;6.10;1.00
5009;DHT22;2523;51.058;6.922;2024-03-17T03:16:47;6.10;1.00
5009;DHT22;2523;51.058;6.922;2024-03-17T03:19:13;6.10;99.90
5009;DHT22;2523;51.058;6.922;2024-03-17T03:21:39;6.10;99.90
5009;DHT22;2523;51.058;6.922;2024-03-17T03:24:05;6.00;1.00
5009;DHT22;2523;51.058;6.922;2024-03-17T03:26:31;6.00;99.90
5009;DHT22;2523;51.058;6.922;2024-03-17T03:28:56;6.00;99.90
5009;DHT22;2523;51.058;6.922;2024-03-17T03:31:22;6.10;99.90
5009;DHT22;2523;51.058;6.922;2024-03-17T03:33:47;6.10;99.90
5009;DHT22;2523;51.058;6.922;2024-03-17T03:36:15;6.10;99.90
5009;DHT22;2523;51.058;6.922;2024-03-17T03:38:41;6.00;99.90
5009;DHT22;2523;51.058;6.922;2024-03-17T03:41:12;6.00;99.90
5009;DHT22;2523;51.058;6.922;2024-03-17T03:43:38;6.00;99.90
5009;DHT22;2523;51.058;6.922;2024-03-17T03:46:04;6.00;99.90
5009;DHT22;2523;51.058;6.922;2024-03-17T03:48:30;6.00;99.90
5009;DHT22;2523;51.058;6.922;2024-03-17T03:50:55;5.90;99.90
5009;DHT22;2523;51.058;6.922;2024-03-17T03:53:21;6.00;99.90
5009;DHT22;2523;51.058;6.922;2024-03-17T03:55:48;5.90;99.90
5009;DHT22;2523;51.058;6.922;2024-03-17T03:58:14;5.90;99.90
5009;DHT22;2523;51.058;6.922;2024-03-17T04:00:40;5.80;99.90
5009;DHT22;2523;51.058;6.922;2024-03-17T04:03:05;5.90;99.90
5009;DHT22;2523;51.058;6.922;2024-03-17T04:05:31;5.90;99.90
5009;DHT22;2523;51.058;6.922;2024-03-17T04:07:57;5.90;99.90
5009;DHT22;2523;51.058;6.922;2024-03-17T04:10:24;6.00;99.90
5009;DHT22;2523;51.058;6.922;2024-03-17T04:12:50;5.90;99.90
5009;DHT22;2523;51.058;6.922;2024-03-17T04:15:16;5.90;99.90
5009;DHT22;2523;51.058;6.922;2024-03-17T04:17:42;5.80;99.90
5009;DHT22;2523;51.058;6.922;2024-03-17T04:20:08;5.70;99.90
5009;DHT22;2523;51.058;6.922;2024-03-17T04:22:35;5.80;99.90
5009;DHT22;2523;51.058;6.922;2024-03-17T04:25:02;5.70;99.90
5009;DHT22;2523;51.058;6.922;2024-03-17T04:27:29;5.70;99.90
5009;DHT22;2523;51.058;6.922;2024-03-17T04:29:59;5.70;99.90
5009;DHT22;2523;51.058;6.922;2024-03-17T04:32:25;5.70;99.90
5009;DHT22;2523;51.058;6.922;2024-03-17T04:34:54;5.80;99.90
5009;DHT22;2523;51.058;6.922;2024-03-17T04:37:19;5.80;99.90
5009;DHT22;2523;51.058;6.922;2024-03-17T04:39:46;5.90;99.90
5009;DHT22;2523;51.058;6.922;2024-03-17T04:42:13;5.90;99.90
5009;DHT22;2523;51.058;6.922;2024-03-17T04:44:40;5.90;99.90
5009;DHT22;2523;51.058;6.922;2024-03-17T04:47:05;6.00;99.90
5009;DHT22;2523;51.058;6.922;2024-03-17T04:49:42;6.00;99.90
5009;DHT22;2523;51.058;6.922;2024-03-17T04:52:08;6.00;99.90
5009;DHT22;2523;51.058;6.922;2024-03-17T04:54:35;6.00;99.90
5009;DHT22;2523;51.058;6.922;2024-03-17T04:57:00;6.10;99.90
5009;DHT22;2523;51.058;6.922;2024-03-17T04:59:26;6.10;99.90
5009;DHT22;2523;51.058;6.922;2024-03-17T05:01:55;6.10;99.90
5009;DHT22;2523;51.058;6.922;2024-03-17T05:04:21;6.10;99.90
5009;DHT22;2523;51.058;6.922;2024-03-17T05:06:48;6.10;99.90
5009;DHT22;2523;51.058;6.922;2024-03-17T05:09:19;6.10;99.90
5009;DHT22;2523;51.058;6.922;2024-03-17T05:11:44;6.10;99.90
5009;DHT22;2523;51.058;6.922;2024-03-17T05:14:11;6.10;99.90
5009;DHT22;2523;51.058;6.922;2024-03-17T05:16:37;6.10;99.90
5009;DHT22;2523;51.058;6.922;2024-03-17T05:19:02;6.10;99.90
5009;DHT22;2523;51.058;6.922;2024-03-17T05:21:29;6.10;99.90
5009;DHT22;2523;51.058;6.922;2024-03-17T05:23:56;5.90;99.90
5009;DHT22;2523;51.058;6.922;2024-03-17T05:26:23;6.00;99.90
5009;DHT22;2523;51.058;6.922;2024-03-17T05:28:49;6.00;99.90
5009;DHT22;2523;51.058;6.922;2024-03-17T05:31:15;6.00;99.90
5009;DHT22;2523;51.058;6.922;2024-03-17T05:33:44;6.10;99.90
5009;DHT22;2523;51.058;6.922;2024-03-17T05:36:09;6.10;99.90
5009;DHT22;2523;51.058;6.922;2024-03-17T05:38:35;6.10;99.90
5009;DHT22;2523;51.058;6.922;2024-03-17T05:43:28;6.00;99.90
5009;DHT22;2523;51.058;6.922;2024-03-17T05:45:57;6.00;99.90
5009;DHT22;2523;51.058;6.922;2024-03-17T05:48:23;6.00;99.90
5009;DHT22;2523;51.058;6.922;2024-03-17T05:50:52;6.00;99.90
5009;DHT22;2523;51.058;6.922;2024-03-17T05:53:18;6.00;99.90
5009;DHT22;2523;51.058;6.922;2024-03-17T05:55:44;6.00;99.90
5009;DHT22;2523;51.058;6.922;2024-03-17T05:58:10;6.00;99.90
5009;DHT22;2523;51.058;6.922;2024-03-17T06:00:36;5.90;99.90
5009;DHT22;2523;51.058;6.922;2024-03-17T06:03:03;6.00;99.90
5009;DHT22;2523;51.058;6.922;2024-03-17T06:05:33;5.90;99.90
5009;DHT22;2523;51.058;6.922;2024-03-17T06:08:00;5.90;99.90
5009;DHT22;2523;51.058;6.922;2024-03-17T06:10:26;6.00;99.90
5009;DHT22;2523;51.058;6.922;2024-03-17T06:12:52;5.90;99.90
5009;DHT22;2523;51.058;6.922;2024-03-17T06:15:18;5.90;99.90
5009;DHT22;2523;51.058;6.922;2024-03-17T06:17:43;5.70;99.90
5009;DHT22;2523;51.058;6.922;2024-03-17T06:20:09;5.70;99.90
5009;DHT22;2523;51.058;6.922;2024-03-17T06:22:39;5.80;99.90
5009;DHT22;2523;51.058;6.922;2024-03-17T06:25:08;5.80;99.90
5009;DHT22;2523;51.058;6.922;2024-03-17T06:27:33;5.90;99.90
5009;DHT22;2523;51.058;6.922;2024-03-17T06:30:00;5.80;99.90
5009;DHT22;2523;51.058;6.922;2024-03-17T06:32:35;5.90;99.90
5009;DHT22;2523;51.058;6.922;2024-03-17T06:35:04;6.00;99.90
5009;DHT22;2523;51.058;6.922;2024-03-17T06:37:29;6.00;99.90
5009;DHT22;2523;51.058;6.922;2024-03-17T06:39:55;6.10;99.90
5009;DHT22;2523;51.058;6.922;2024-03-17T06:42:20;6.20;99.90
5009;DHT22;2523;51.058;6.922;2024-03-17T06:44:46;6.20;99.90
5009;DHT22;2523;51.058;6.922;2024-03-17T06:47:12;6.30;99.90
5009;DHT22;2523;51.058;6.922;2024-03-17T06:49:37;6.40;99.90
5009;DHT22;2523;51.058;6.922;2024-03-17T06:52:03;6.40;99.90
5009;DHT22;2523;51.058;6.922;2024-03-17T06:54:29;6.40;99.90
5009;DHT22;2523;51.058;6.922;2024-03-17T06:56:54;6.40;99.90
5009;DHT22;2523;51.058;6.922;2024-03-17T06:59:20;6.50;99.90
5009;DHT22;2523;51.058;6.922;2024-03-17T07:32:09;6.10;99.90
5009;DHT22;2523;51.058;6.922;2024-03-17T07:34:35;6.10;99.90
5009;DHT22;2523;51.058;6.922;2024-03-17T07:37:01;6.20;99.90
5009;DHT22;2523;51.058;6.922;2024-03-17T07:39:31;6.30;99.90
5009;DHT22;2523;51.058;6.922;2024-03-17T07:41:58;6.50;99.90
5009;DHT22;2523;51.058;6.922;2024-03-17T07:44:25;6.60;99.90
5009;DHT22;2523;51.058;6.922;2024-03-17T07:46:50;6.80;99.90
5009;DHT22;2523;51.058;6.922;2024-03-17T07:49:16;7.00;99.90
5009;DHT22;2523;51.058;6.922;2024-03-17T07:51:42;7.10;99.90
5009;DHT22;2523;51.058;6.922;2024-03-17T07:54:09;7.20;99.90
5009;DHT22;2523;51.058;6.922;2024-03-17T07:56:34;7.20;99.90
5009;DHT22;2523;51.058;6.922;2024-03-17T07:59:00;7.40;99.90
5009;DHT22;2523;51.058;6.922;2024-03-17T08:01:25;7.50;99.90
5009;DHT22;2523;51.058;6.922;2024-03-17T08:03:52;7.60;99.90
5009;DHT22;2523;51.058;6.922;2024-03-17T08:06:21;7.70;99.90
5009;DHT22;2523;51.058;6.922;2024-03-17T08:08:47;7.80;99.90
5009;DHT22;2523;51.058;6.922;2024-03-17T08:11:13;8.00;99.90
5009;DHT22;2523;51.058;6.922;2024-03-17T08:13:38;8.20;99.90
5009;DHT22;2523;51.058;6.922;2024-03-17T08:16:06;8.20;99.90
5009;DHT22;2523;51.058;6.922;2024-03-17T08:18:32;8.40;99.90
5009;DHT22;2523;51.058;6.922;2024-03-17T08:21:00;8.50;99.90
5009;DHT22;2523;51.058;6.922;2024-03-17T08:23:25;8.70;99.90
5009;DHT22;2523;51.058;6.922;2024-03-17T08:26:01;8.70;99.90
5009;DHT22;2523;51.058;6.922;2024-03-17T08:28:27;8.70;99.90
5009;DHT22;2523;51.058;6.922;2024-03-17T08:31:01;8.60;99.90
5009;DHT22;2523;51.058;6.922;2024-03-17T08:33:27;8.50;99.90
5009;DHT22;2523;51.058;6.922;2024-03-17T08:36:06;8.60;99.90
5009;DHT22;2523;51.058;6.922;2024-03-17T08:38:33;8.70;99.90
5009;DHT22;2523;51.058;6.922;2024-03-17T08:41:04;9.00;99.90
5009;DHT22;2523;51.058;6.922;2024-03-17T08:43:34;9.20;99.90
5009;DHT22;2523;51.058;6.922;2024-03-17T08:46:01;9.40;99.90
5009;DHT22;2523;51.058;6.922;2024-03-17T08:48:31;9.50;99.90
5009;DHT22;2523;51.058;6.922;2024-03-17T08:50:58;9.40;99.90
5009;DHT22;2523;51.058;6.922;2024-03-17T08:53:24;9.50;99.90
5009;DHT22;2523;51.058;6.922;2024-03-17T08:55:50;9.70;99.90
5009;DHT22;2523;51.058;6.922;2024-03-17T08:58:16;9.60;99.90
5009;DHT22;2523;51.058;6.922;2024-03-17T09:00:42;9.60;99.90
5009;DHT22;2523;51.058;6.922;2024-03-17T09:03:08;9.60;99.90
5009;DHT22;2523;51.058;6.922;2024-03-17T09:05:37;9.60;99.90
5009;DHT22;2523;51.058;6.922;2024-03-17T09:08:04;9.70;99.90
5009;DHT22;2523;51.058;6.922;2024-03-17T09:10:29;9.90;99.90
5009;DHT22;2523;51.058;6.922;2024-03-17T09:12:55;10.00;99.90
5009;DHT22;2523;51.058;6.922;2024-03-17T09:15:20;10.10;99.90
5009;DHT22;2523;51.058;6.922;2024-03-17T09:17:46;10.20;99.90
5009;DHT22;2523;51.058;6.922;2024-03-17T09:20:13;10.10;99.90
5009;DHT22;2523;51.058;6.922;2024-03-17T09:22:41;10.20;99.90
5009;DHT22;2523;51.058;6.922;2024-03-17T09:25:09;10.10;99.90
5009;DHT22;2523;51.058;6.922;2024-03-17T09:27:36;10.10;99.90
5009;DHT22;2523;51.058;6.922;2024-03-17T09:30:03;10.20;99.90
5009;DHT22;2523;51.058;6.922;2024-03-17T09:32:32;10.30;99.90
5009;DHT22;2523;51.058;6.922;2024-03-17T09:34:57;10.30;99.90
5009;DHT22;2523;51.058;6.922;2024-03-17T09:37:23;10.40;99.90
5009;DHT22;2523;51.058;6.922;2024-03-17T09:39:49;10.50;99.90
5009;DHT22;2523;51.058;6.922;2024-03-17T09:42:19;10.60;99.90
5009;DHT22;2523;51.058;6.922;2024-03-17T09:44:48;10.80;99.90
5009;DHT22;2523;51.058;6.922;2024-03-17T09:47:19;10.90;99.90
5009;DHT22;2523;51.058;6.922;2024-03-17T09:49:49;10.90;99.90
5009;DHT22;2523;51.058;6.922;2024-03-17T09:52:21;11.10;99.90
5009;DHT22;2523;51.058;6.922;2024-03-17T09:54:58;11.30;99.90
5009;DHT22;2523;51.058;6.922;2024-03-17T09:57:24;11.40;99.90
5009;DHT22;2523;51.058;6.922;2024-03-17T09:59:51;11.40;99.90
5009;DHT22;2523;51.058;6.922;2024-03-17T10:02:18;11.40;99.90
5009;DHT22;2523;51.058;6.922;2024-03-17T10:04:44;11.30;99.90
5009;DHT22;2523;51.058;6.922;2024-03-17T10:07:09;11.40;99.90
5009;DHT22;2523;51.058;6.922;2024-03-17T10:09:35;11.30;99.90
5009;DHT22;2523;51.058;6.922;2024-03-17T10:12:01;11.30;99.90
5009;DHT22;2523;51.058;6.922;2024-03-17T10:14:27;11.40;99.90
5009;DHT22;2523;51.058;6.922;2024-03-17T10:16:53;11.60;99.90
5009;DHT22;2523;51.058;6.922;2024-03-17T10:19:25;11.70;99.90
5009;DHT22;2523;51.058;6.922;2024-03-17T10:22:00;11.80;99.90
5009;DHT22;2523;51.058;6.922;2024-03-17T10:24:27;11.80;99.90
5009;DHT22;2523;51.058;6.922;2024-03-17T10:26:55;11.70;99.90
5009;DHT22;2523;51.058;6.922;2024-03-17T10:29:32;11.60;99.90
5009;DHT22;2523;51.058;6.922;2024-03-17T10:32:01;11.70;99.90
5009;DHT22;2523;51.058;6.922;2024-03-17T10:34:29;11.70;99.90
5009;DHT22;2523;51.058;6.922;2024-03-17T10:39:42;12.10;99.90
5009;DHT22;2523;51.058;6.922;2024-03-17T10:42:10;12.10;99.90
5009;DHT22;2523;51.058;6.922;2024-03-17T10:44:37;12.20;99.90
5009;DHT22;2523;51.058;6.922;2024-03-17T10:47:04;12.20;99.90
5009;DHT22;2523;51.058;6.922;2024-03-17T10:49:36;12.30;99.90
5009;DHT22;2523;51.058;6.922;2024-03-17T10:52:04;12.30;99.90
5009;DHT22;2523;51.058;6.922;2024-03-17T10:54:31;12.50;99.90
5009;DHT22;2523;51.058;6.922;2024-03-17T10:57:07;12.70;99.90
5009;DHT22;2523;51.058;6.922;2024-03-17T10:59:42;13.10;99.90
5009;DHT22;2523;51.058;6.922;2024-03-17T11:02:21;13.50;99.90
5009;DHT22;2523;51.058;6.922;2024-03-17T11:04:57;14.00;99.90
5009;DHT22;2523;51.058;6.922;2024-03-17T11:07:23;14.10;99.90
5009;DHT22;2523;51.058;6.922;2024-03-17T11:09:51;14.40;96.10
5009;DHT22;2523;51.058;6.922;2024-03-17T11:12:46;14.60;94.80
5009;DHT22;2523;51.058;6.922;2024-03-17T11:17:55;15.30;93.00
5009;DHT22;2523;51.058;6.922;2024-03-17T11:20:26;14.60;87.30
5009;DHT22;2523;51.058;6.922;2024-03-17T11:22:57;14.70;90.70
5009;DHT22;2523;51.058;6.922;2024-03-17T11:28:02;14.80;96.80
5009;DHT22;2523;51.058;6.922;2024-03-17T11:41:36;16.20;69.50
5009;DHT22;2523;51.058;6.922;2024-03-17T11:46:55;15.80;77.00
5009;DHT22;2523;51.058;6.922;2024-03-17T11:49:28;15.80;80.00
5009;DHT22;2523;51.058;6.922;2024-03-17T11:51:56;15.60;83.40
5009;DHT22;2523;51.058;6.922;2024-03-17T11:54:24;15.60;74.40
5009;DHT22;2523;51.058;6.922;2024-03-17T11:56:51;15.40;77.10
5009;DHT22;2523;51.058;6.922;2024-03-17T11:59:18;15.30;83.70
5009;DHT22;2523;51.058;6.922;2024-03-17T12:01:48;14.80;82.90
5009;DHT22;2523;51.058;6.922;2024-03-17T12:04:15;15.00;88.60
5009;DHT22;2523;51.058;6.922;2024-03-17T12:06:59;15.20;86.60
5009;DHT22;2523;51.058;6.922;2024-03-17T12:09:30;15.30;89.70
5009;DHT22;2523;51.058;6.922;2024-03-17T12:12:11;15.70;77.50
5009;DHT22;2523;51.058;6.922;2024-03-17T12:14:38;16.00;70.60
5009;DHT22;2523;51.058;6.922;2024-03-17T12:17:05;16.10;80.50
5009;DHT22;2523;51.058;6.922;2024-03-17T12:19:33;16.50;70.30
5009;DHT22;2523;51.058;6.922;2024-03-17T12:21:59;16.30;56.30
5009;DHT22;2523;51.058;6.922;2024-03-17T12:24:29;16.80;71.40
5009;DHT22;2523;51.058;6.922;2024-03-17T12:26:56;16.70;48.90
5009;DHT22;2523;51.058;6.922;2024-03-17T12:29:29;16.90;58.90
5009;DHT22;2523;51.058;6.922;2024-03-17T12:31:57;16.60;56.10
5009;DHT22;2523;51.058;6.922;2024-03-17T12:34:25;16.00;70.00
5009;DHT22;2523;51.058;6.922;2024-03-17T12:36:55;15.70;59.30
5009;DHT22;2523;51.058;6.922;2024-03-17T12:39:23;15.50;72.00
5009;DHT22;2523;51.058;6.922;2024-03-17T12:42:08;15.60;80.60
5009;DHT22;2523;51.058;6.922;2024-03-17T12:44:39;15.60;75.80
5009;DHT22;2523;51.058;6.922;2024-03-17T12:47:14;15.40;77.10
5009;DHT22;2523;51.058;6.922;2024-03-17T12:49:45;15.30;82.60
5009;DHT22;2523;51.058;6.922;2024-03-17T12:52:18;15.40;77.20
5009;DHT22;2523;51.058;6.922;2024-03-17T12:54:43;15.30;80.40
5009;DHT22;2523;51.058;6.922;2024-03-17T12:57:15;15.10;77.10
5009;DHT22;2523;51.058;6.922;2024-03-17T13:00:00;14.80;80.90
5009;DHT22;2523;51.058;6.922;2024-03-17T13:02:44;14.80;92.90
5009;DHT22;2523;51.058;6.922;2024-03-17T13:05:18;14.80;89.60
5009;DHT22;2523;51.058;6.922;2024-03-17T13:07:44;14.60;85.80
5009;DHT22;2523;51.058;6.922;2024-03-17T13:10:14;14.70;91.10
5009;DHT22;2523;51.058;6.922;2024-03-17T13:12:40;14.60;91.40
5009;DHT22;2523;51.058;6.922;2024-03-17T13:15:09;14.50;92.10
5009;DHT22;2523;51.058;6.922;2024-03-17T13:17:36;14.40;90.80
5009;DHT22;2523;51.058;6.922;2024-03-17T13:20:02;14.30;92.50
5009;DHT22;2523;51.058;6.922;2024-03-17T13:22:27;14.30;96.90
5009;DHT22;2523;51.058;6.922;2024-03-17T13:24:53;14.30;99.90
5009;DHT22;2523;51.058;6.922;2024-03-17T13:27:19;14.30;97.80
5009;DHT22;2523;51.058;6.922;2024-03-17T13:29:48;14.30;95.10
5009;DHT22;2523;51.058;6.922;2024-03-17T13:32:14;14.30;97.50
5009;DHT22;2523;51.058;6.922;2024-03-17T13:34:41;14.20;97.40
5009;DHT22;2523;51.058;6.922;2024-03-17T13:37:06;14.10;98.70
5009;DHT22;2523;51.058;6.922;2024-03-17T13:39:33;14.10;99.90
5009;DHT22;2523;51.058;6.922;2024-03-17T13:42:00;14.10;99.90
5009;DHT22;2523;51.058;6.922;2024-03-17T13:44:32;14.00;99.90
5009;DHT22;2523;51.058;6.922;2024-03-17T13:46:58;14.00;99.90
5009;DHT22;2523;51.058;6.922;2024-03-17T13:49:24;13.90;97.60
5009;DHT22;2523;51.058;6.922;2024-03-17T13:51:52;14.00;99.30
5009;DHT22;2523;51.058;6.922;2024-03-17T13:54:18;14.00;97.50
5009;DHT22;2523;51.058;6.922;2024-03-17T13:56:46;13.90;99.50
5009;DHT22;2523;51.058;6.922;2024-03-17T13:59:13;13.90;99.90
5009;DHT22;2523;51.058;6.922;2024-03-17T14:01:39;13.90;99.90
5009;DHT22;2523;51.058;6.922;2024-03-17T14:04:04;13.90;99.90
5009;DHT22;2523;51.058;6.922;2024-03-17T14:06:30;13.90;99.90
5009;DHT22;2523;51.058;6.922;2024-03-17T14:08:55;13.80;99.90
5009;DHT22;2523;51.058;6.922;2024-03-17T14:11:21;13.90;99.90
5009;DHT22;2523;51.058;6.922;2024-03-17T14:13:46;13.90;99.90
5009;DHT22;2523;51.058;6.922;2024-03-17T14:16:12;13.90;99.90
5009;DHT22;2523;51.058;6.922;2024-03-17T14:18:38;13.90;99.90
5009;DHT22;2523;51.058;6.922;2024-03-17T14:21:03;13.90;99.90
5009;DHT22;2523;51.058;6.922;2024-03-17T14:23:30;13.90;99.90
5009;DHT22;2523;51.058;6.922;2024-03-17T14:25:56;13.90;99.90
5009;DHT22;2523;51.058;6.922;2024-03-17T14:28:22;14.00;99.90
5009;DHT22;2523;51.058;6.922;2024-03-17T14:30:47;14.00;99.90
5009;DHT22;2523;51.058;6.922;2024-03-17T14:33:13;14.00;98.70
5009;DHT22;2523;51.058;6.922;2024-03-17T14:35:38;14.10;99.90
5009;DHT22;2523;51.058;6.922;2024-03-17T14:38:06;14.10;99.90
5009;DHT22;2523;51.058;6.922;2024-03-17T14:40:34;14.10;97.60
5009;DHT22;2523;51.058;6.922;2024-03-17T14:43:00;14.10;97.80
5009;DHT22;2523;51.058;6.922;2024-03-17T14:45:28;14.20;97.70
5009;DHT22;2523;51.058;6.922;2024-03-17T14:47:53;14.30;99.90
5009;DHT22;2523;51.058;6.922;2024-03-17T14:50:19;14.30;99.70
5009;DHT22;2523;51.058;6.922;2024-03-17T14:52:45;14.30;98.30
5009;DHT22;2523;51.058;6.922;2024-03-17T14:55:11;14.30;99.90
5009;DHT22;2523;51.058;6.922;2024-03-17T14:57:40;14.30;99.90
5009;DHT22;2523;51.058;6.922;2024-03-17T15:00:13;14.40;99.90
5009;DHT22;2523;51.058;6.922;2024-03-17T15:02:45;14.50;99.90
5009;DHT22;2523;51.058;6.922;2024-03-17T15:05:12;14.50;99.90
5009;DHT22;2523;51.058;6.922;2024-03-17T15:07:39;14.60;98.50
5009;DHT22;2523;51.058;6.922;2024-03-17T15:10:06;14.70;96.90
5009;DHT22;2523;51.058;6.922;2024-03-17T15:12:32;14.80;98.40
5009;DHT22;2523;51.058;6.922;2024-03-17T15:14:58;14.80;98.50
5009;DHT22;2523;51.058;6.922;2024-03-17T15:17:23;14.90;96.10
5009;DHT22;2523;51.058;6.922;2024-03-17T15:19:49;14.90;99.30
5009;DHT22;2523;51.058;6.922;2024-03-17T15:22:14;14.90;97.60
5009;DHT22;2523;51.058;6.922;2024-03-17T15:24:40;14.90;97.90
5009;DHT22;2523;51.058;6.922;2024-03-17T15:27:06;14.80;99.90
5009;DHT22;2523;51.058;6.922;2024-03-17T15:29:31;14.90;99.90
5009;DHT22;2523;51.058;6.922;2024-03-17T15:31:57;14.90;98.50
5009;DHT22;2523;51.058;6.922;2024-03-17T15:34:23;14.90;99.90
5009;DHT22;2523;51.058;6.922;2024-03-17T15:36:48;15.00;96.50
5009;DHT22;2523;51.058;6.922;2024-03-17T15:39:15;15.00;98.80
5009;DHT22;2523;51.058;6.922;2024-03-17T15:41:41;14.90;98.70
5009;DHT22;2523;51.058;6.922;2024-03-17T15:44:07;14.80;98.90
5009;DHT22;2523;51.058;6.922;2024-03-17T15:46:32;14.80;97.00
5009;DHT22;2523;51.058;6.922;2024-03-17T15:48:58;14.70;99.90
5009;DHT22;2523;51.058;6.922;2024-03-17T15:51:24;14.60;98.40
5009;DHT22;2523;51.058;6.922;2024-03-17T15:53:50;14.60;99.50
5009;DHT22;2523;51.058;6.922;2024-03-17T15:56:16;14.60;99.90
5009;DHT22;2523;51.058;6.922;2024-03-17T15:58:42;14.60;99.90
5009;DHT22;2523;51.058;6.922;2024-03-17T16:01:08;14.50;99.90
5009;DHT22;2523;51.058;6.922;2024-03-17T16:03:36;14.60;99.90
5009;DHT22;2523;51.058;6.922;2024-03-17T16:06:07;14.60;99.90
5009;DHT22;2523;51.058;6.922;2024-03-17T16:08:46;14.70;99.90
5009;DHT22;2523;51.058;6.922;2024-03-17T16:11:13;14.70;99.20
5009;DHT22;2523;51.058;6.922;2024-03-17T16:13:42;14.70;99.90
5009;DHT22;2523;51.058;6.922;2024-03-17T16:16:11;14.70;97.00
5009;DHT22;2523;51.058;6.922;2024-03-17T16:18:39;14.70;99.00
5009;DHT22;2523;51.058;6.922;2024-03-17T16:21:09;14.70;99.90
5009;DHT22;2523;51.058;6.922;2024-03-17T16:23:51;14.70;99.90
5009;DHT22;2523;51.058;6.922;2024-03-17T16:26:19;14.70;99.90
5009;DHT22;2523;51.058;6.922;2024-03-17T16:28:46;14.70;99.30
5009;DHT22;2523;51.058;6.922;2024-03-17T16:31:12;14.60;98.50
5009;DHT22;2523;51.058;6.922;2024-03-17T16:33:38;14.50;99.90
5009;DHT22;2523;51.058;6.922;2024-03-17T16:36:04;14.50;99.90
5009;DHT22;2523;51.058;6.922;2024-03-17T16:38:31;14.30;99.90
5009;DHT22;2523;51.058;6.922;2024-03-17T16:40:58;14.10;99.90
5009;DHT22;2523;51.058;6.922;2024-03-17T16:43:48;14.10;99.90
5009;DHT22;2523;51.058;6.922;2024-03-17T16:49:15;13.80;99.90
5009;DHT22;2523;51.058;6.922;2024-03-17T16:51:41;13.80;99.90
5009;DHT22;2523;51.058;6.922;2024-03-17T16:54:06;13.60;99.90
5009;DHT22;2523;51.058;6.922;2024-03-17T16:56:32;13.70;99.90
5009;DHT22;2523;51.058;6.922;2024-03-17T16:58:59;13.70;99.90
5009;DHT22;2523;51.058;6.922;2024-03-17T17:01:25;13.60;99.90
5009;DHT22;2523;51.058;6.922;2024-03-17T17:03:53;13.60;99.90
5009;DHT22;2523;51.058;6.922;2024-03-17T17:06:20;13.60;99.90
5009;DHT22;2523;51.058;6.922;2024-03-17T17:08:46;13.50;99.90
5009;DHT22;2523;51.058;6.922;2024-03-17T17:11:16;13.50;99.90